createdAt,value
2023-05-18T00:01:16.180Z,50.10
2023-05-18T00:03:42.863Z,49.55
2023-05-18T00:06:09.898Z,49.94
2023-05-18T00:08:37.600Z,50.13
2023-05-18T00:11:05.373Z,50.09
2023-05-18T00:13:32.237Z,50.49
2023-05-18T00:15:58.679Z,50.92
2023-05-18T00:18:26.655Z,49.16
2023-05-18T00:20:59.936Z,48.97
2023-05-18T00:23:29.663Z,49.17
2023-05-18T00:26:00.278Z,49.82
2023-05-18T00:28:27.003Z,49.83
2023-05-18T00:30:54.370Z,50.23
2023-05-18T00:33:21.246Z,50.11
2023-05-18T00:35:47.782Z,49.74
2023-05-18T00:38:17.011Z,50.23
2023-05-18T00:40:43.605Z,50.38
2023-05-18T00:43:10.578Z,49.57
2023-05-18T00:45:37.236Z,50.15
2023-05-18T00:48:04.109Z,49.69
2023-05-18T00:50:30.751Z,50.61
2023-05-18T00:52:57.229Z,50.47
2023-05-18T00:55:23.852Z,50.48
2023-05-18T00:57:50.408Z,51.24
2023-05-18T01:00:17.293Z,51.93
2023-05-18T01:02:45.225Z,51.27
2023-05-18T01:05:13.278Z,51.40
2023-05-18T01:07:42.564Z,51.85
2023-05-18T01:10:11.054Z,51.14
2023-05-18T01:13:15.528Z,50.99
2023-05-18T01:15:44.490Z,51.20
2023-05-18T01:18:21.715Z,51.38
2023-05-18T01:21:13.391Z,51.64
2023-05-18T01:24:00.915Z,51.99
2023-05-18T01:26:32.902Z,50.78
2023-05-18T01:29:01.328Z,52.74
2023-05-18T01:31:28.116Z,52.83
2023-05-18T01:33:54.554Z,53.32
2023-05-18T01:36:21.219Z,53.65
2023-05-18T01:38:48.387Z,54.61
2023-05-18T01:41:29.276Z,54.73
2023-05-18T01:44:15.781Z,55.01
2023-05-18T01:47:08.123Z,56.11
2023-05-18T01:49:58.043Z,55.48
2023-05-18T01:52:35.155Z,55.50
2023-05-18T01:55:04.025Z,55.89
2023-05-18T01:57:32.731Z,57.64
2023-05-18T02:00:04.577Z,57.18
2023-05-18T02:02:31.491Z,57.31
2023-05-18T02:04:57.932Z,57.48
2023-05-18T02:07:24.349Z,57.13
2023-05-18T02:09:50.895Z,57.17
2023-05-18T02:12:17.266Z,57.55
2023-05-18T02:14:43.652Z,58.21
2023-05-18T02:17:10.168Z,58.99
2023-05-18T02:19:38.119Z,59.47
2023-05-18T02:22:08.112Z,59.85
2023-05-18T02:24:34.908Z,59.15
2023-05-18T02:27:01.491Z,59.46
2023-05-18T02:29:27.946Z,59.70
2023-05-18T02:31:54.426Z,61.42
2023-05-18T02:34:22.807Z,60.67
2023-05-18T02:36:49.375Z,60.72
2023-05-18T02:39:16.110Z,61.40
2023-05-18T02:41:42.477Z,61.35
2023-05-18T02:44:08.941Z,61.74
2023-05-18T02:46:35.441Z,61.19
2023-05-18T02:49:01.862Z,61.64
2023-05-18T02:51:28.408Z,60.84
2023-05-18T02:53:54.830Z,60.37
2023-05-18T02:56:21.260Z,59.76
2023-05-18T02:58:47.760Z,59.69
2023-05-18T03:01:14.243Z,59.63
2023-05-18T03:03:42.410Z,59.85
2023-05-18T03:06:09.403Z,59.05
2023-05-18T03:08:37.173Z,58.97
2023-05-18T03:11:04.084Z,59.75
2023-05-18T03:13:30.459Z,59.68
2023-05-18T03:15:57.721Z,60.23
2023-05-18T03:18:25.182Z,58.89
2023-05-18T03:20:52.101Z,58.61
2023-05-18T03:23:19.967Z,59.32
2023-05-18T03:25:46.375Z,59.29
2023-05-18T03:28:12.772Z,60.58
2023-05-18T03:30:39.196Z,59.73
2023-05-18T03:33:05.638Z,60.07
2023-05-18T03:35:32.645Z,61.07
2023-05-18T03:37:59.212Z,60.92
2023-05-18T03:40:26.630Z,60.70
2023-05-18T03:42:53.116Z,60.65
2023-05-18T03:45:19.544Z,61.42
2023-05-18T03:47:46.298Z,60.67
2023-05-18T03:50:13.092Z,60.88
2023-05-18T03:52:39.934Z,60.47
2023-05-18T03:55:06.627Z,60.86
2023-05-18T03:57:33.273Z,61.43
2023-05-18T03:59:59.795Z,61.69
2023-05-18T04:02:26.506Z,62.09
2023-05-18T04:04:54.854Z,61.61
2023-05-18T04:07:24.307Z,61.92
2023-05-18T04:09:56.186Z,61.93
2023-05-18T04:12:23.001Z,61.45
2023-05-18T04:14:49.625Z,61.34
2023-05-18T04:17:17.375Z,60.67
2023-05-18T04:19:43.916Z,60.93
2023-05-18T04:22:10.341Z,63.04
2023-05-18T04:24:37.228Z,62.76
2023-05-18T04:27:04.016Z,62.79
2023-05-18T04:29:30.466Z,62.50
2023-05-18T04:32:03.096Z,62.10
2023-05-18T04:34:31.271Z,61.58
2023-05-18T04:37:00.669Z,60.98
2023-05-18T04:39:27.331Z,60.79
2023-05-18T04:41:59.456Z,61.37
2023-05-18T04:44:31.490Z,60.98
2023-05-18T04:46:59.212Z,60.83
2023-05-18T04:49:26.121Z,61.30
2023-05-18T04:51:56.119Z,61.25
2023-05-18T04:54:24.039Z,59.79
2023-05-18T04:56:51.599Z,60.60
2023-05-18T04:59:18.711Z,60.46
2023-05-18T05:01:46.280Z,59.47
2023-05-18T05:04:13.277Z,59.44
2023-05-18T05:06:39.755Z,59.90
2023-05-18T05:09:06.245Z,59.20
2023-05-18T05:11:32.687Z,58.56
2023-05-18T05:13:59.091Z,58.62
2023-05-18T05:16:25.644Z,59.45
2023-05-18T05:18:52.142Z,58.71
2023-05-18T05:21:18.572Z,58.04
2023-05-18T05:23:45.253Z,59.14
2023-05-18T05:26:11.665Z,58.56
2023-05-18T05:28:38.295Z,58.95
2023-05-18T05:31:04.739Z,58.64
2023-05-18T05:33:31.252Z,58.67
2023-05-18T05:35:57.661Z,59.45
2023-05-18T05:38:24.027Z,59.50
2023-05-18T05:40:50.554Z,58.91
2023-05-18T05:43:16.953Z,58.98
2023-05-18T05:45:43.656Z,58.77
2023-05-18T05:48:13.370Z,58.99
2023-05-18T05:50:40.198Z,58.17
2023-05-18T05:53:06.758Z,57.76
2023-05-18T05:55:33.418Z,58.28
2023-05-18T05:57:59.941Z,58.35
2023-05-18T06:00:28.661Z,57.67
2023-05-18T06:02:55.074Z,57.69
2023-05-18T06:05:21.561Z,59.04
2023-05-18T06:07:48.052Z,57.63
2023-05-18T06:10:14.504Z,57.02
2023-05-18T06:12:41.216Z,57.86
2023-05-18T06:15:08.314Z,57.35
2023-05-18T06:17:35.135Z,56.40
2023-05-18T06:20:01.561Z,55.81
2023-05-18T06:22:27.968Z,55.72
2023-05-18T06:24:54.353Z,55.78
2023-05-18T06:27:20.933Z,55.46
2023-05-18T06:29:47.304Z,54.68
2023-05-18T06:32:13.985Z,55.20
2023-05-18T06:34:40.487Z,55.46
2023-05-18T06:37:06.901Z,54.62
2023-05-18T06:39:33.317Z,55.50
2023-05-18T06:41:59.723Z,54.54
2023-05-18T06:44:26.399Z,55.00
2023-05-18T06:46:52.796Z,53.48
2023-05-18T06:49:19.189Z,54.49
2023-05-18T06:51:45.903Z,54.00
2023-05-18T06:54:12.958Z,54.66
2023-05-18T06:56:39.371Z,53.31
2023-05-18T06:59:05.931Z,54.43
2023-05-18T07:01:33.652Z,53.55
2023-05-18T07:04:00.236Z,52.88
2023-05-18T07:06:28.542Z,52.85
2023-05-18T07:08:54.973Z,53.67
2023-05-18T07:11:21.965Z,53.30
2023-05-18T07:13:48.353Z,52.78
2023-05-18T07:16:14.797Z,51.91
2023-05-18T07:18:42.273Z,54.29
2023-05-18T07:21:08.753Z,52.69
2023-05-18T07:23:35.233Z,54.59
2023-05-18T07:26:01.767Z,52.89
2023-05-18T07:28:28.223Z,52.60
2023-05-18T07:30:54.580Z,51.29
2023-05-18T07:33:21.042Z,51.89
2023-05-18T07:35:47.510Z,51.39
2023-05-18T07:38:13.874Z,51.33
2023-05-18T07:40:40.282Z,50.36
2023-05-18T07:43:06.673Z,51.56
2023-05-18T07:45:33.234Z,50.33
2023-05-18T07:48:00.317Z,49.34
2023-05-18T07:50:26.935Z,49.14
2023-05-18T07:52:53.287Z,48.87
2023-05-18T07:55:19.662Z,49.02
2023-05-18T07:57:46.061Z,47.85
2023-05-18T08:00:13.106Z,48.66
2023-05-18T08:02:55.299Z,48.38
2023-05-18T08:05:22.690Z,47.80
2023-05-18T08:07:49.540Z,47.13
2023-05-18T08:10:16.003Z,47.80
2023-05-18T08:12:42.483Z,47.13
2023-05-18T08:15:09.565Z,47.21
2023-05-18T08:17:35.980Z,47.29
2023-05-18T08:20:04.717Z,45.17
2023-05-18T08:22:31.156Z,46.72
2023-05-18T08:25:00.834Z,44.95
2023-05-18T08:27:29.474Z,45.77
2023-05-18T08:29:56.341Z,45.91
2023-05-18T08:32:22.808Z,44.50
2023-05-18T08:34:51.346Z,43.25
2023-05-18T08:37:17.853Z,43.25
2023-05-18T08:39:46.005Z,43.40
2023-05-18T08:42:17.690Z,42.81
2023-05-18T08:44:58.573Z,42.54
2023-05-18T08:47:26.699Z,42.33
2023-05-18T08:49:56.142Z,43.40
2023-05-18T08:52:27.884Z,42.95
2023-05-18T08:54:54.624Z,41.31
2023-05-18T08:57:33.901Z,42.87
2023-05-18T09:00:01.848Z,42.43
2023-05-18T09:02:29.109Z,42.22
2023-05-18T09:04:56.761Z,40.57
2023-05-18T09:07:23.476Z,40.62
2023-05-18T09:09:49.935Z,41.76
2023-05-18T09:12:18.841Z,41.02
2023-05-18T09:14:46.500Z,39.24
2023-05-18T09:17:13.071Z,40.66
2023-05-18T09:19:39.613Z,41.80
2023-05-18T09:22:06.664Z,41.23
2023-05-18T09:24:35.303Z,39.78
2023-05-18T09:27:02.101Z,38.78
2023-05-18T09:29:28.509Z,39.22
2023-05-18T09:31:55.107Z,38.10
2023-05-18T09:34:21.699Z,40.09
2023-05-18T09:36:52.950Z,40.07
2023-05-18T09:39:19.518Z,38.89
2023-05-18T09:41:46.081Z,39.08
2023-05-18T09:44:12.698Z,38.97
2023-05-18T09:46:40.152Z,38.36
2023-05-18T09:49:08.029Z,38.58
2023-05-18T09:51:38.581Z,37.69
2023-05-18T09:54:07.589Z,39.56
2023-05-18T09:56:38.125Z,40.43
2023-05-18T09:59:11.041Z,40.42
2023-05-18T10:01:41.726Z,37.56
2023-05-18T10:04:08.108Z,38.05
2023-05-18T10:06:34.562Z,38.11
2023-05-18T10:09:04.557Z,37.37
2023-05-18T10:11:32.067Z,38.18
2023-05-18T10:13:58.781Z,37.70
2023-05-18T10:16:25.741Z,37.45
2023-05-18T10:18:55.316Z,36.57
2023-05-18T10:21:24.595Z,36.33
2023-05-18T10:23:52.265Z,37.60
2023-05-18T10:26:22.795Z,39.10
2023-05-18T10:28:50.454Z,37.22
2023-05-18T10:31:17.191Z,37.86
2023-05-18T10:33:44.316Z,36.32
2023-05-18T10:36:11.478Z,37.22
2023-05-18T10:38:43.303Z,37.53
2023-05-18T10:41:11.595Z,36.81
2023-05-18T10:43:39.322Z,35.51
2023-05-18T10:46:08.163Z,35.45
2023-05-18T10:48:39.030Z,33.90
2023-05-18T10:51:07.382Z,33.59
2023-05-18T10:53:34.099Z,33.08
2023-05-18T10:56:01.025Z,30.54
2023-05-18T10:58:29.388Z,30.66
2023-05-18T11:00:57.990Z,30.05
2023-05-18T11:03:26.925Z,29.29
2023-05-18T11:06:10.275Z,29.45
2023-05-18T11:09:03.230Z,30.39
2023-05-18T11:11:30.281Z,30.26
2023-05-18T11:14:02.256Z,29.67
2023-05-18T11:16:36.216Z,33.09
2023-05-18T11:19:07.760Z,31.32
2023-05-18T11:21:37.069Z,31.68
2023-05-18T11:24:44.384Z,31.10
2023-05-18T11:27:16.161Z,32.56
2023-05-18T11:29:48.132Z,32.21
2023-05-18T11:32:30.325Z,30.39
2023-05-18T11:34:58.200Z,29.58
2023-05-18T11:37:39.968Z,29.81
2023-05-18T11:40:11.281Z,30.01
2023-05-18T11:42:38.247Z,28.99
2023-05-18T11:45:09.163Z,30.02
2023-05-18T11:47:36.670Z,29.06
2023-05-18T11:50:07.226Z,29.27
2023-05-18T11:52:33.683Z,28.70
2023-05-18T11:55:01.161Z,28.75
2023-05-18T11:57:33.870Z,28.50
2023-05-18T12:00:01.735Z,28.66
2023-05-18T12:02:31.815Z,25.94
2023-05-18T12:05:00.283Z,27.17
2023-05-18T12:07:28.358Z,29.56
2023-05-18T12:10:01.992Z,29.76
2023-05-18T12:12:28.827Z,28.41
2023-05-18T12:15:00.356Z,29.24
2023-05-18T12:17:48.109Z,30.00
2023-05-18T12:20:20.231Z,27.97
2023-05-18T12:22:52.806Z,27.77
2023-05-18T12:25:21.637Z,27.68
2023-05-18T12:27:48.594Z,26.63
2023-05-18T12:30:22.062Z,27.95
2023-05-18T12:32:51.000Z,27.76
2023-05-18T12:35:21.488Z,28.05
2023-05-18T12:37:47.945Z,28.45
2023-05-18T12:40:17.001Z,28.61
2023-05-18T12:42:57.397Z,26.73
2023-05-18T12:45:27.663Z,27.11
2023-05-18T12:47:55.455Z,28.41
2023-05-18T12:50:23.775Z,28.60
2023-05-18T12:52:51.088Z,29.21
2023-05-18T12:55:21.594Z,28.69
2023-05-18T12:58:20.829Z,28.80
2023-05-18T13:00:48.418Z,29.33
2023-05-18T13:03:17.802Z,28.77
2023-05-18T13:05:46.259Z,28.64
2023-05-18T13:08:19.016Z,28.99
2023-05-18T13:10:45.709Z,28.43
2023-05-18T13:13:16.226Z,29.76
2023-05-18T13:15:43.898Z,27.63
2023-05-18T13:18:11.901Z,26.99
2023-05-18T13:20:50.985Z,30.31
2023-05-18T13:23:19.539Z,27.09
2023-05-18T13:25:48.900Z,29.87
2023-05-18T13:28:17.091Z,28.67
2023-05-18T13:30:45.061Z,27.95
2023-05-18T13:33:12.010Z,27.21
2023-05-18T13:35:41.714Z,28.63
2023-05-18T13:38:13.195Z,28.24
2023-05-18T13:40:40.366Z,28.82
2023-05-18T13:43:06.820Z,28.58
2023-05-18T13:45:35.834Z,28.60
2023-05-18T13:48:09.261Z,28.77
2023-05-18T13:50:36.728Z,29.12
2023-05-18T13:53:03.331Z,26.45
2023-05-18T13:55:30.012Z,27.73
2023-05-18T13:57:56.861Z,28.10
2023-05-18T14:00:23.255Z,28.22
2023-05-18T14:02:49.881Z,26.95
2023-05-18T14:05:16.506Z,28.94
2023-05-18T14:07:43.889Z,27.65
2023-05-18T14:10:12.208Z,28.71
2023-05-18T14:12:39.301Z,29.81
2023-05-18T14:15:06.259Z,29.32
2023-05-18T14:17:32.855Z,27.12
2023-05-18T14:19:59.715Z,28.48
2023-05-18T14:22:26.486Z,28.05
2023-05-18T14:24:53.567Z,26.95
2023-05-18T14:27:20.515Z,26.77
2023-05-18T14:29:47.620Z,29.45
2023-05-18T14:32:14.285Z,27.52
2023-05-18T14:34:43.732Z,27.86
2023-05-18T14:37:10.168Z,28.52
2023-05-18T14:39:37.695Z,28.24
2023-05-18T14:42:04.485Z,27.87
2023-05-18T14:44:30.961Z,26.73
2023-05-18T14:46:57.528Z,27.07
2023-05-18T14:49:23.925Z,26.62
2023-05-18T14:51:50.525Z,27.43
2023-05-18T14:54:18.913Z,26.45
2023-05-18T14:56:45.581Z,27.82
2023-05-18T14:59:11.991Z,27.63
2023-05-18T15:01:38.425Z,28.32
2023-05-18T15:04:05.083Z,27.35
2023-05-18T15:06:31.566Z,26.49
2023-05-18T15:08:57.957Z,26.49
2023-05-18T15:11:24.328Z,28.23
2023-05-18T15:13:50.800Z,27.73
2023-05-18T15:16:19.578Z,27.28
2023-05-18T15:18:46.559Z,28.33
2023-05-18T15:21:13.060Z,27.78
2023-05-18T15:23:39.497Z,28.36
2023-05-18T15:26:08.233Z,28.28
2023-05-18T15:28:35.470Z,26.44
2023-05-18T15:31:01.882Z,26.86
2023-05-18T15:33:28.539Z,26.82
2023-05-18T15:35:54.969Z,26.78
2023-05-18T15:38:21.442Z,27.96
2023-05-18T15:40:47.929Z,28.31
2023-05-18T15:43:14.463Z,27.33
2023-05-18T15:45:40.865Z,27.15
2023-05-18T15:48:07.348Z,29.04
2023-05-18T15:50:33.798Z,28.14
2023-05-18T15:53:00.196Z,27.54
2023-05-18T15:55:26.582Z,26.85
2023-05-18T15:57:52.943Z,28.12
2023-05-18T16:00:22.128Z,28.48
2023-05-18T16:02:48.727Z,28.88
2023-05-18T16:05:15.247Z,28.23
2023-05-18T16:07:42.211Z,27.24
2023-05-18T16:10:08.870Z,28.06
2023-05-18T16:12:35.260Z,27.44
2023-05-18T16:15:01.669Z,28.09
2023-05-18T16:17:28.413Z,27.63
2023-05-18T16:19:54.921Z,27.76
2023-05-18T16:22:21.305Z,28.44
2023-05-18T16:24:47.678Z,29.03
2023-05-18T16:27:14.052Z,28.49
2023-05-18T16:29:41.428Z,27.54
2023-05-18T16:32:08.325Z,29.11
2023-05-18T16:34:34.692Z,27.95
2023-05-18T16:37:01.089Z,28.78
2023-05-18T16:39:27.475Z,28.97
2023-05-18T16:41:53.890Z,29.09
2023-05-18T16:44:20.500Z,29.97
2023-05-18T16:46:46.919Z,29.30
2023-05-18T16:49:13.419Z,29.18
2023-05-18T16:51:40.078Z,28.60
2023-05-18T16:54:06.858Z,29.27
2023-05-18T16:56:33.297Z,30.10
2023-05-18T16:58:59.696Z,29.65
2023-05-18T17:01:28.121Z,30.29
2023-05-18T17:03:54.851Z,30.47
2023-05-18T17:06:21.380Z,30.52
2023-05-18T17:08:47.770Z,30.11
2023-05-18T17:11:14.335Z,31.22
2023-05-18T17:13:40.747Z,30.75
2023-05-18T17:16:07.263Z,31.53
2023-05-18T17:18:33.665Z,31.07
2023-05-18T17:21:00.046Z,29.69
2023-05-18T17:23:26.571Z,31.68
2023-05-18T17:26:00.845Z,30.83
2023-05-18T17:28:31.931Z,32.01
2023-05-18T17:30:58.360Z,32.13
2023-05-18T17:33:24.898Z,31.31
2023-05-18T17:35:51.467Z,31.27
2023-05-18T17:38:17.933Z,32.35
2023-05-18T17:40:44.295Z,32.68
2023-05-18T17:43:11.116Z,32.34
2023-05-18T17:45:37.541Z,32.21
2023-05-18T17:48:04.300Z,32.07
2023-05-18T17:50:31.144Z,33.39
2023-05-18T17:52:58.314Z,33.19
2023-05-18T17:55:24.693Z,34.08
2023-05-18T17:57:51.571Z,33.18
2023-05-18T18:00:18.552Z,34.38
2023-05-18T18:02:45.035Z,32.76
2023-05-18T18:05:11.591Z,33.36
2023-05-18T18:07:39.186Z,32.69
2023-05-18T18:10:06.987Z,33.34
2023-05-18T18:12:33.389Z,33.51
2023-05-18T18:14:59.773Z,34.04
2023-05-18T18:17:26.246Z,34.20
2023-05-18T18:19:52.694Z,33.51
2023-05-18T18:22:19.184Z,33.35
2023-05-18T18:24:45.647Z,33.18
2023-05-18T18:27:12.017Z,34.08
2023-05-18T18:29:38.434Z,33.67
2023-05-18T18:32:05.037Z,33.64
2023-05-18T18:34:31.431Z,33.83
2023-05-18T18:36:58.750Z,33.93
2023-05-18T18:39:25.145Z,33.87
2023-05-18T18:41:51.538Z,34.28
2023-05-18T18:44:17.908Z,35.10
2023-05-18T18:46:45.223Z,36.01
2023-05-18T18:49:11.728Z,36.55
2023-05-18T18:51:38.126Z,36.41
2023-05-18T18:54:04.690Z,36.64
2023-05-18T18:56:31.461Z,35.73
2023-05-18T18:58:57.956Z,36.75
2023-05-18T19:01:24.428Z,36.98
2023-05-18T19:03:52.777Z,36.91
2023-05-18T19:06:20.130Z,37.79
2023-05-18T19:08:46.549Z,37.88
2023-05-18T19:11:12.956Z,37.61
2023-05-18T19:13:39.378Z,38.58
2023-05-18T19:16:06.350Z,37.56
2023-05-18T19:18:32.765Z,37.82
2023-05-18T19:21:01.164Z,38.22
2023-05-18T19:23:27.518Z,38.48
2023-05-18T19:25:54.746Z,39.03
2023-05-18T19:28:21.178Z,38.88
2023-05-18T19:30:48.130Z,39.10
2023-05-18T19:33:14.657Z,38.24
2023-05-18T19:35:41.199Z,39.51
2023-05-18T19:38:07.576Z,39.38
2023-05-18T19:40:33.955Z,40.25
2023-05-18T19:43:01.472Z,40.15
2023-05-18T19:45:27.941Z,40.62
2023-05-18T19:47:54.528Z,41.15
2023-05-18T19:50:21.195Z,42.15
2023-05-18T19:52:49.441Z,41.14
2023-05-18T19:55:16.454Z,40.59
2023-05-18T19:57:42.985Z,39.67
2023-05-18T20:00:11.017Z,39.81
2023-05-18T20:02:37.793Z,40.84
2023-05-18T20:05:06.681Z,41.29
2023-05-18T20:07:33.923Z,40.95
2023-05-18T20:10:00.327Z,41.24
2023-05-18T20:12:28.286Z,41.75
2023-05-18T20:14:54.775Z,41.52
2023-05-18T20:17:21.547Z,41.90
2023-05-18T20:19:50.986Z,42.61
2023-05-18T20:22:17.892Z,42.71
2023-05-18T20:24:44.981Z,43.03
2023-05-18T20:27:15.095Z,43.48
2023-05-18T20:29:41.680Z,42.64
2023-05-18T20:32:08.292Z,43.79
2023-05-18T20:34:34.756Z,44.85
2023-05-18T20:37:01.150Z,44.70
2023-05-18T20:39:28.942Z,43.93
2023-05-18T20:41:55.432Z,44.54
2023-05-18T20:44:23.332Z,44.70
2023-05-18T20:46:52.827Z,45.15
2023-05-18T20:49:21.633Z,44.95
2023-05-18T20:51:49.285Z,45.48
2023-05-18T20:54:17.731Z,44.78
2023-05-18T20:56:44.505Z,44.77
2023-05-18T20:59:12.522Z,44.14
2023-05-18T21:01:39.914Z,44.99
2023-05-18T21:04:06.686Z,44.64
2023-05-18T21:06:34.240Z,45.13
2023-05-18T21:09:01.403Z,45.33
2023-05-18T21:11:28.025Z,45.86
2023-05-18T21:13:54.380Z,45.16
2023-05-18T21:16:20.782Z,45.76
2023-05-18T21:18:47.396Z,45.11
2023-05-18T21:21:13.766Z,45.14
2023-05-18T21:23:40.145Z,46.12
2023-05-18T21:26:06.527Z,45.21
2023-05-18T21:28:32.900Z,44.81
2023-05-18T21:30:59.328Z,45.52
2023-05-18T21:33:25.953Z,45.71
2023-05-18T21:35:52.475Z,45.96
2023-05-18T21:38:18.894Z,44.99
2023-05-18T21:40:46.592Z,45.11
2023-05-18T21:43:12.981Z,46.13
2023-05-18T21:45:39.529Z,46.81
2023-05-18T21:48:06.291Z,46.05
2023-05-18T21:50:35.851Z,47.07
2023-05-18T21:53:05.493Z,46.68
2023-05-18T21:55:32.260Z,46.33
2023-05-18T21:57:59.185Z,47.41
2023-05-18T22:00:26.753Z,47.82
2023-05-18T22:02:53.136Z,47.65
2023-05-18T22:05:19.631Z,47.15
2023-05-18T22:07:46.081Z,47.97
2023-05-18T22:10:12.596Z,48.24
2023-05-18T22:12:40.959Z,48.11
2023-05-18T22:15:08.596Z,47.50
2023-05-18T22:17:36.528Z,49.26
2023-05-18T22:20:05.880Z,48.39
2023-05-18T22:22:32.282Z,49.40
2023-05-18T22:24:58.626Z,48.05
2023-05-18T22:27:25.082Z,48.90
2023-05-18T22:29:51.687Z,48.56
2023-05-18T22:32:19.199Z,47.81
2023-05-18T22:34:45.647Z,48.14
2023-05-18T22:37:13.149Z,48.47
2023-05-18T22:39:39.542Z,48.71
2023-05-18T22:42:06.184Z,47.42
2023-05-18T22:44:32.533Z,47.00
2023-05-18T22:46:59.102Z,47.21
2023-05-18T22:49:26.112Z,47.12
2023-05-18T22:51:52.580Z,46.91
2023-05-18T22:54:18.976Z,46.88
2023-05-18T22:56:45.385Z,48.06
2023-05-18T22:59:11.893Z,47.17
2023-05-18T23:01:38.517Z,46.53
2023-05-18T23:04:05.125Z,47.12
2023-05-18T23:06:31.653Z,47.64
2023-05-18T23:09:00.397Z,47.79
2023-05-18T23:11:28.420Z,48.38
2023-05-18T23:13:54.999Z,48.43
2023-05-18T23:16:22.543Z,49.04
2023-05-18T23:18:50.544Z,48.72
2023-05-18T23:21:17.088Z,49.08
2023-05-18T23:23:45.516Z,49.41
2023-05-18T23:26:12.593Z,49.46
2023-05-18T23:28:39.106Z,49.76
2023-05-18T23:31:05.559Z,50.24
2023-05-18T23:33:32.402Z,50.29
2023-05-18T23:36:02.512Z,50.70
2023-05-18T23:38:34.944Z,51.64
2023-05-18T23:41:03.385Z,50.48
2023-05-18T23:43:30.394Z,50.78
2023-05-18T23:45:59.532Z,49.91
2023-05-18T23:48:27.499Z,50.35
2023-05-18T23:50:59.705Z,51.53
2023-05-18T23:53:27.688Z,51.43
2023-05-18T23:55:56.680Z,51.68
2023-05-18T23:58:26.100Z,51.00
